Terminal Aerodrome Forecast
Issued by NWS

Home | Current Version | Previous Version | Text Only | Print | Product List | Glossary On
Versions: 1 2 3 4 5 6 7 8 9 10 11 12 13
000
FTUS44 KJAN 292327
TAFGTR
TAF
KGTR 292327Z 3000/3024 33006KT P6SM SCT060
     FM301000 33002KT 5SM BR SCT250
     FM301300 01006KT P6SM SCT250=

USA.gov is the U.S. government's official web portal to all federal, state and local government web resources and services.